sensor_id;sensor_type;location;lat;lon;timestamp;pressure;altitude;pressure_sealevel;temperature;humidity
1207;BME280;593;53.184;8.216;2024-01-27T00:00:22;102642.75;;;7.66;100.00
1207;BME280;593;53.184;8.216;2024-01-27T00:02:47;102641.06;;;7.65;100.00
1207;BME280;593;53.184;8.216;2024-01-27T00:05:13;102638.78;;;7.62;100.00
1207;BME280;593;53.184;8.216;2024-01-27T00:07:38;102637.31;;;7.60;100.00
1207;BME280;593;53.184;8.216;2024-01-27T00:10:04;102637.75;;;7.57;100.00
1207;BME280;593;53.184;8.216;2024-01-27T00:12:30;102640.50;;;7.50;100.00
1207;BME280;593;53.184;8.216;2024-01-27T00:14:55;102643.81;;;7.52;100.00
1207;BME280;593;53.184;8.216;2024-01-27T00:17:20;102649.66;;;7.49;100.00
1207;BME280;593;53.184;8.216;2024-01-27T00:19:50;102652.16;;;7.44;100.00
1207;BME280;593;53.184;8.216;2024-01-27T00:22:15;102649.25;;;7.46;100.00
1207;BME280;593;53.184;8.216;2024-01-27T00:24:42;102645.09;;;7.43;100.00
1207;BME280;593;53.184;8.216;2024-01-27T00:27:08;102636.56;;;7.40;100.00
1207;BME280;593;53.184;8.216;2024-01-27T00:29:33;102641.78;;;7.41;100.00
1207;BME280;593;53.184;8.216;2024-01-27T00:31:59;102643.03;;;7.39;100.00
1207;BME280;593;53.184;8.216;2024-01-27T00:34:24;102642.41;;;7.37;100.00
1207;BME280;593;53.184;8.216;2024-01-27T00:36:50;102641.78;;;7.35;100.00
1207;BME280;593;53.184;8.216;2024-01-27T00:39:17;102652.59;;;7.35;100.00
1207;BME280;593;53.184;8.216;2024-01-27T00:41:43;102660.94;;;7.33;100.00
1207;BME280;593;53.184;8.216;2024-01-27T00:44:09;102659.69;;;7.29;100.00
1207;BME280;593;53.184;8.216;2024-01-27T00:46:39;102659.06;;;7.27;100.00
1207;BME280;593;53.184;8.216;2024-01-27T00:49:04;102657.63;;;7.25;100.00
1207;BME280;593;53.184;8.216;2024-01-27T00:51:30;102656.16;;;7.22;100.00
1207;BME280;593;53.184;8.216;2024-01-27T00:53:56;102657.44;;;7.20;100.00
1207;BME280;593;53.184;8.216;2024-01-27T00:56:21;102664.50;;;7.21;100.00
1207;BME280;593;53.184;8.216;2024-01-27T00:58:47;102660.34;;;7.18;100.00
1207;BME280;593;53.184;8.216;2024-01-27T01:01:12;102665.16;;;7.16;100.00
1207;BME280;593;53.184;8.216;2024-01-27T01:03:37;102663.47;;;7.15;100.00
1207;BME280;593;53.184;8.216;2024-01-27T01:06:03;102660.56;;;7.10;100.00
1207;BME280;593;53.184;8.216;2024-01-27T01:08:28;102666.81;;;7.10;100.00
1207;BME280;593;53.184;8.216;2024-01-27T01:10:54;102660.97;;;7.07;100.00
1207;BME280;593;53.184;8.216;2024-01-27T01:13:19;102655.78;;;7.05;100.00
1207;BME280;593;53.184;8.216;2024-01-27T01:15:44;102668.47;;;7.05;100.00
1207;BME280;593;53.184;8.216;2024-01-27T01:18:10;102666.00;;;7.03;100.00
1207;BME280;593;53.184;8.216;2024-01-27T01:20:35;102667.88;;;7.03;100.00
1207;BME280;593;53.184;8.216;2024-01-27T01:23:01;102670.56;;;7.03;100.00
1207;BME280;593;53.184;8.216;2024-01-27T01:25:26;102659.13;;;7.01;100.00
1207;BME280;593;53.184;8.216;2024-01-27T01:27:52;102670.75;;;7.01;100.00
1207;BME280;593;53.184;8.216;2024-01-27T01:30:17;102658.28;;;7.00;100.00
1207;BME280;593;53.184;8.216;2024-01-27T01:32:43;102673.69;;;7.00;100.00
1207;BME280;593;53.184;8.216;2024-01-27T01:35:10;102680.56;;;6.96;100.00
1207;BME280;593;53.184;8.216;2024-01-27T01:37:35;102683.88;;;6.98;100.00
1207;BME280;593;53.184;8.216;2024-01-27T01:40:05;102698.44;;;6.97;100.00
1207;BME280;593;53.184;8.216;2024-01-27T01:42:30;102703.00;;;6.96;100.00
1207;BME280;593;53.184;8.216;2024-01-27T01:44:58;102700.94;;;6.92;100.00
1207;BME280;593;53.184;8.216;2024-01-27T01:47:23;102700.53;;;6.95;100.00
1207;BME280;593;53.184;8.216;2024-01-27T01:49:49;102706.97;;;6.94;100.00
1207;BME280;593;53.184;8.216;2024-01-27T01:52:15;102703.47;;;6.93;100.00
1207;BME280;593;53.184;8.216;2024-01-27T01:54:48;102696.78;;;6.89;100.00
1207;BME280;593;53.184;8.216;2024-01-27T01:57:13;102703.66;;;6.92;100.00
1207;BME280;593;53.184;8.216;2024-01-27T01:59:39;102705.94;;;6.88;100.00
1207;BME280;593;53.184;8.216;2024-01-27T02:02:06;102704.91;;;6.89;100.00
1207;BME280;593;53.184;8.216;2024-01-27T02:07:06;102714.25;;;6.87;100.00
1207;BME280;593;53.184;8.216;2024-01-27T02:09:32;102704.69;;;6.84;100.00
1207;BME280;593;53.184;8.216;2024-01-27T02:11:57;102703.66;;;6.85;100.00
1207;BME280;593;53.184;8.216;2024-01-27T02:14:23;102712.78;;;6.84;100.00
1207;BME280;593;53.184;8.216;2024-01-27T02:16:50;102713.84;;;6.83;100.00
1207;BME280;593;53.184;8.216;2024-01-27T02:19:15;102711.34;;;6.82;100.00
1207;BME280;593;53.184;8.216;2024-01-27T02:21:41;102708.63;;;6.82;100.00
1207;BME280;593;53.184;8.216;2024-01-27T02:24:09;102715.28;;;6.79;100.00
1207;BME280;593;53.184;8.216;2024-01-27T02:26:35;102717.19;;;6.79;100.00
1207;BME280;593;53.184;8.216;2024-01-27T02:29:01;102711.13;;;6.77;100.00
1207;BME280;593;53.184;8.216;2024-01-27T02:31:26;102720.91;;;6.78;100.00
1207;BME280;593;53.184;8.216;2024-01-27T02:33:52;102720.28;;;6.76;100.00
1207;BME280;593;53.184;8.216;2024-01-27T02:36:17;102709.25;;;6.71;100.00
1207;BME280;593;53.184;8.216;2024-01-27T02:38:43;102720.47;;;6.74;100.00
1207;BME280;593;53.184;8.216;2024-01-27T02:41:09;102715.28;;;6.73;100.00
1207;BME280;593;53.184;8.216;2024-01-27T02:43:36;102723.41;;;6.73;100.00
1207;BME280;593;53.184;8.216;2024-01-27T02:46:01;102726.31;;;6.71;100.00
1207;BME280;593;53.184;8.216;2024-01-27T02:48:27;102728.81;;;6.73;100.00
1207;BME280;593;53.184;8.216;2024-01-27T02:50:52;102720.91;;;6.71;100.00
1207;BME280;593;53.184;8.216;2024-01-27T02:53:17;102726.50;;;6.70;100.00
1207;BME280;593;53.184;8.216;2024-01-27T02:55:43;102725.06;;;6.67;100.00
1207;BME280;593;53.184;8.216;2024-01-27T02:58:08;102723.81;;;6.70;100.00
1207;BME280;593;53.184;8.216;2024-01-27T03:00:34;102713.22;;;6.68;100.00
1207;BME280;593;53.184;8.216;2024-01-27T03:02:59;102720.50;;;6.68;100.00
1207;BME280;593;53.184;8.216;2024-01-27T03:05:25;102724.22;;;6.67;100.00
1207;BME280;593;53.184;8.216;2024-01-27T03:07:50;102716.09;;;6.67;100.00
1207;BME280;593;53.184;8.216;2024-01-27T03:10:15;102725.28;;;6.66;100.00
1207;BME280;593;53.184;8.216;2024-01-27T03:12:41;102724.66;;;6.64;100.00
1207;BME280;593;53.184;8.216;2024-01-27T03:15:07;102720.28;;;6.63;100.00
1207;BME280;593;53.184;8.216;2024-01-27T03:17:33;102709.69;;;6.61;100.00
1207;BME280;593;53.184;8.216;2024-01-27T03:19:58;102721.94;;;6.64;100.00
1207;BME280;593;53.184;8.216;2024-01-27T03:22:24;102719.25;;;6.64;100.00
1207;BME280;593;53.184;8.216;2024-01-27T03:24:49;102712.16;;;6.63;100.00
1207;BME280;593;53.184;8.216;2024-01-27T03:27:17;102719.66;;;6.61;100.00
1207;BME280;593;53.184;8.216;2024-01-27T03:29:42;102722.34;;;6.61;100.00
1207;BME280;593;53.184;8.216;2024-01-27T03:32:07;102737.50;;;6.62;100.00
1207;BME280;593;53.184;8.216;2024-01-27T03:34:33;102722.53;;;6.59;100.00
1207;BME280;593;53.184;8.216;2024-01-27T03:36:58;102730.88;;;6.58;100.00
1207;BME280;593;53.184;8.216;2024-01-27T03:39:23;102729.63;;;6.54;100.00
1207;BME280;593;53.184;8.216;2024-01-27T03:41:49;102720.25;;;6.50;100.00
1207;BME280;593;53.184;8.216;2024-01-27T03:44:14;102727.53;;;6.56;100.00
1207;BME280;593;53.184;8.216;2024-01-27T03:46:40;102724.84;;;6.56;100.00
1207;BME280;593;53.184;8.216;2024-01-27T03:49:05;102729.41;;;6.55;100.00
1207;BME280;593;53.184;8.216;2024-01-27T03:51:30;102735.84;;;6.54;100.00
1207;BME280;593;53.184;8.216;2024-01-27T03:53:56;102728.78;;;6.53;100.00
1207;BME280;593;53.184;8.216;2024-01-27T03:56:21;102729.81;;;6.52;100.00
1207;BME280;593;53.184;8.216;2024-01-27T03:58:46;102727.09;;;6.52;100.00
1207;BME280;593;53.184;8.216;2024-01-27T04:01:12;102736.28;;;6.51;100.00
1207;BME280;593;53.184;8.216;2024-01-27T04:03:37;102742.69;;;6.50;100.00
1207;BME280;593;53.184;8.216;2024-01-27T04:06:03;102744.78;;;6.48;100.00
1207;BME280;593;53.184;8.216;2024-01-27T04:08:31;102743.94;;;6.47;100.00
1207;BME280;593;53.184;8.216;2024-01-27T04:10:57;102752.88;;;6.48;100.00
1207;BME280;593;53.184;8.216;2024-01-27T04:13:22;102745.63;;;6.49;100.00
1207;BME280;593;53.184;8.216;2024-01-27T04:15:48;102752.03;;;6.47;100.00
1207;BME280;593;53.184;8.216;2024-01-27T04:18:16;102740.19;;;6.42;100.00
1207;BME280;593;53.184;8.216;2024-01-27T04:20:41;102740.63;;;6.45;100.00
1207;BME280;593;53.184;8.216;2024-01-27T04:23:07;102743.72;;;6.42;100.00
1207;BME280;593;53.184;8.216;2024-01-27T04:25:32;102753.69;;;6.42;100.00
1207;BME280;593;53.184;8.216;2024-01-27T04:27:58;102745.81;;;6.40;100.00
1207;BME280;593;53.184;8.216;2024-01-27T04:30:23;102744.13;;;6.39;100.00
1207;BME280;593;53.184;8.216;2024-01-27T04:32:51;102748.28;;;6.35;100.00
1207;BME280;593;53.184;8.216;2024-01-27T04:35:17;102760.72;;;6.36;100.00
1207;BME280;593;53.184;8.216;2024-01-27T04:37:43;102756.56;;;6.34;100.00
1207;BME280;593;53.184;8.216;2024-01-27T04:40:10;102759.47;;;6.32;100.00
1207;BME280;593;53.184;8.216;2024-01-27T04:42:37;102766.13;;;6.30;100.00
1207;BME280;593;53.184;8.216;2024-01-27T04:45:04;102766.56;;;6.33;100.00
1207;BME280;593;53.184;8.216;2024-01-27T04:47:30;102754.09;;;6.32;100.00
1207;BME280;593;53.184;8.216;2024-01-27T04:49:55;102756.56;;;6.34;100.00
1207;BME280;593;53.184;8.216;2024-01-27T04:52:21;102757.81;;;6.31;100.00
1207;BME280;593;53.184;8.216;2024-01-27T04:54:46;102755.31;;;6.30;100.00
1207;BME280;593;53.184;8.216;2024-01-27T04:57:11;102744.50;;;6.30;100.00
1207;BME280;593;53.184;8.216;2024-01-27T04:59:37;102762.81;;;6.28;100.00
1207;BME280;593;53.184;8.216;2024-01-27T05:02:02;102755.53;;;6.28;100.00
1207;BME280;593;53.184;8.216;2024-01-27T05:04:28;102762.97;;;6.26;100.00
1207;BME280;593;53.184;8.216;2024-01-27T05:06:53;102768.38;;;6.26;100.00
1207;BME280;593;53.184;8.216;2024-01-27T05:09:18;102762.97;;;6.26;100.00
1207;BME280;593;53.184;8.216;2024-01-27T05:11:44;102762.34;;;6.24;100.00
1207;BME280;593;53.184;8.216;2024-01-27T05:14:11;102759.25;;;6.21;100.00
1207;BME280;593;53.184;8.216;2024-01-27T05:16:36;102772.31;;;6.24;100.00
1207;BME280;593;53.184;8.216;2024-01-27T05:19:02;102777.09;;;6.22;100.00
1207;BME280;593;53.184;8.216;2024-01-27T05:21:27;102778.16;;;6.21;100.00
1207;BME280;593;53.184;8.216;2024-01-27T05:23:53;102781.66;;;6.21;100.00
1207;BME280;593;53.184;8.216;2024-01-27T05:26:18;102785.41;;;6.20;100.00
1207;BME280;593;53.184;8.216;2024-01-27T05:28:43;102775.63;;;6.19;100.00
1207;BME280;593;53.184;8.216;2024-01-27T05:31:09;102778.34;;;6.19;100.00
1207;BME280;593;53.184;8.216;2024-01-27T05:33:38;102778.56;;;6.18;100.00
1207;BME280;593;53.184;8.216;2024-01-27T05:36:05;102776.03;;;6.16;100.00
1207;BME280;593;53.184;8.216;2024-01-27T05:38:31;102768.97;;;6.15;100.00
1207;BME280;593;53.184;8.216;2024-01-27T05:40:58;102770.22;;;6.13;100.00
1207;BME280;593;53.184;8.216;2024-01-27T05:43:23;102785.19;;;6.15;100.00
1207;BME280;593;53.184;8.216;2024-01-27T05:45:49;102778.94;;;6.15;100.00
1207;BME280;593;53.184;8.216;2024-01-27T05:48:14;102771.25;;;6.12;100.00
1207;BME280;593;53.184;8.216;2024-01-27T05:50:42;102775.81;;;6.11;100.00
1207;BME280;593;53.184;8.216;2024-01-27T05:53:07;102787.03;;;6.08;100.00
1207;BME280;593;53.184;8.216;2024-01-27T05:55:33;102791.78;;;6.06;100.00
1207;BME280;593;53.184;8.216;2024-01-27T05:57:59;102804.25;;;6.07;100.00
1207;BME280;593;53.184;8.216;2024-01-27T06:00:24;102803.81;;;6.04;100.00
1207;BME280;593;53.184;8.216;2024-01-27T06:02:50;102805.28;;;6.06;100.00
1207;BME280;593;53.184;8.216;2024-01-27T06:05:15;102799.69;;;6.01;100.00
1207;BME280;593;53.184;8.216;2024-01-27T06:07:42;102802.56;;;6.00;100.00
1207;BME280;593;53.184;8.216;2024-01-27T06:10:10;102804.88;;;6.03;100.00
1207;BME280;593;53.184;8.216;2024-01-27T06:12:37;102803.78;;;5.97;100.00
1207;BME280;593;53.184;8.216;2024-01-27T06:15:03;102806.09;;;6.00;100.00
1207;BME280;593;53.184;8.216;2024-01-27T06:17:28;102804.41;;;5.99;100.00
1207;BME280;593;53.184;8.216;2024-01-27T06:19:54;102820.00;;;5.97;100.00
1207;BME280;593;53.184;8.216;2024-01-27T06:22:19;102817.28;;;5.97;100.00
1207;BME280;593;53.184;8.216;2024-01-27T06:24:48;102810.25;;;5.96;100.00
1207;BME280;593;53.184;8.216;2024-01-27T06:27:13;102833.25;;;5.92;100.00
1207;BME280;593;53.184;8.216;2024-01-27T06:29:38;102824.72;;;5.89;100.00
1207;BME280;593;53.184;8.216;2024-01-27T06:32:05;102824.31;;;5.92;100.00
1207;BME280;593;53.184;8.216;2024-01-27T06:34:32;102827.81;;;5.86;100.00
1207;BME280;593;53.184;8.216;2024-01-27T06:36:57;102848.19;;;5.88;100.00
1207;BME280;593;53.184;8.216;2024-01-27T06:39:23;102826.59;;;5.88;100.00
1207;BME280;593;53.184;8.216;2024-01-27T06:41:48;102830.53;;;5.86;100.00
1207;BME280;593;53.184;8.216;2024-01-27T06:44:14;102828.38;;;5.81;100.00
1207;BME280;593;53.184;8.216;2024-01-27T06:46:39;102826.50;;;5.81;100.00
1207;BME280;593;53.184;8.216;2024-01-27T06:49:04;102847.28;;;5.81;100.00
1207;BME280;593;53.184;8.216;2024-01-27T06:51:30;102843.94;;;5.79;100.00
1207;BME280;593;53.184;8.216;2024-01-27T06:53:55;102834.19;;;5.78;100.00
1207;BME280;593;53.184;8.216;2024-01-27T06:56:20;102829.81;;;5.77;100.00
1207;BME280;593;53.184;8.216;2024-01-27T06:58:46;102833.53;;;5.76;100.00
1207;BME280;593;53.184;8.216;2024-01-27T07:01:11;102828.16;;;5.76;100.00
1207;BME280;593;53.184;8.216;2024-01-27T07:03:37;102831.03;;;5.74;100.00
1207;BME280;593;53.184;8.216;2024-01-27T07:06:05;102844.72;;;5.73;100.00
1207;BME280;593;53.184;8.216;2024-01-27T07:08:30;102839.34;;;5.73;100.00
1207;BME280;593;53.184;8.216;2024-01-27T07:10:57;102840.09;;;5.67;100.00
1207;BME280;593;53.184;8.216;2024-01-27T07:13:23;102855.53;;;5.73;100.00
1207;BME280;593;53.184;8.216;2024-01-27T07:15:48;102854.06;;;5.70;100.00
1207;BME280;593;53.184;8.216;2024-01-27T07:18:14;102845.91;;;5.64;100.00
1207;BME280;593;53.184;8.216;2024-01-27T07:20:40;102857.78;;;5.69;100.00
1207;BME280;593;53.184;8.216;2024-01-27T07:23:06;102860.47;;;5.69;100.00
1207;BME280;593;53.184;8.216;2024-01-27T07:25:31;102838.22;;;5.61;100.00
1207;BME280;593;53.184;8.216;2024-01-27T07:27:56;102846.56;;;5.66;100.00
1207;BME280;593;53.184;8.216;2024-01-27T07:30:22;102848.41;;;5.65;100.00
1207;BME280;593;53.184;8.216;2024-01-27T07:32:47;102840.31;;;5.65;100.00
1207;BME280;593;53.184;8.216;2024-01-27T07:35:13;102845.09;;;5.63;100.00
1207;BME280;593;53.184;8.216;2024-01-27T07:37:38;102839.03;;;5.61;100.00
1207;BME280;593;53.184;8.216;2024-01-27T07:40:05;102852.72;;;5.60;100.00
1207;BME280;593;53.184;8.216;2024-01-27T07:42:31;102849.00;;;5.61;100.00
1207;BME280;593;53.184;8.216;2024-01-27T07:44:56;102860.81;;;5.60;100.00
1207;BME280;593;53.184;8.216;2024-01-27T07:47:22;102865.59;;;5.58;100.00
1207;BME280;593;53.184;8.216;2024-01-27T07:49:48;102870.78;;;5.59;100.00
1207;BME280;593;53.184;8.216;2024-01-27T07:52:14;102867.06;;;5.60;100.00
1207;BME280;593;53.184;8.216;2024-01-27T07:54:39;102877.84;;;5.60;100.00
1207;BME280;593;53.184;8.216;2024-01-27T07:57:05;102875.75;;;5.56;100.00
1207;BME280;593;53.184;8.216;2024-01-27T07:59:31;102885.13;;;5.60;100.00
1207;BME280;593;53.184;8.216;2024-01-27T08:01:57;102890.06;;;5.56;100.00
1207;BME280;593;53.184;8.216;2024-01-27T08:04:22;102890.31;;;5.61;100.00
1207;BME280;593;53.184;8.216;2024-01-27T08:06:51;102909.19;;;5.61;100.00
1207;BME280;593;53.184;8.216;2024-01-27T08:09:17;102900.28;;;5.61;100.00
1207;BME280;593;53.184;8.216;2024-01-27T08:11:43;102904.63;;;5.62;100.00
1207;BME280;593;53.184;8.216;2024-01-27T08:14:09;102900.66;;;5.58;100.00
1207;BME280;593;53.184;8.216;2024-01-27T08:16:34;102924.38;;;5.62;100.00
1207;BME280;593;53.184;8.216;2024-01-27T08:19:00;102919.81;;;5.63;100.00
1207;BME280;593;53.184;8.216;2024-01-27T08:21:25;102916.91;;;5.64;100.00
1207;BME280;593;53.184;8.216;2024-01-27T08:23:51;102921.47;;;5.64;100.00
1207;BME280;593;53.184;8.216;2024-01-27T08:26:16;102920.66;;;5.63;100.00
1207;BME280;593;53.184;8.216;2024-01-27T08:28:43;102913.00;;;5.67;100.00
1207;BME280;593;53.184;8.216;2024-01-27T08:31:09;102924.16;;;5.64;100.00
1207;BME280;593;53.184;8.216;2024-01-27T08:33:35;102931.72;;;5.68;100.00
1207;BME280;593;53.184;8.216;2024-01-27T08:36:00;102935.22;;;5.69;100.00
1207;BME280;593;53.184;8.216;2024-01-27T08:38:27;102936.91;;;5.70;100.00
1207;BME280;593;53.184;8.216;2024-01-27T08:40:52;102935.88;;;5.71;100.00
1207;BME280;593;53.184;8.216;2024-01-27T08:43:18;102934.00;;;5.71;100.00
1207;BME280;593;53.184;8.216;2024-01-27T08:45:43;102930.06;;;5.74;100.00
1207;BME280;593;53.184;8.216;2024-01-27T08:48:09;102927.38;;;5.74;100.00
1207;BME280;593;53.184;8.216;2024-01-27T08:50:36;102931.75;;;5.75;100.00
1207;BME280;593;53.184;8.216;2024-01-27T08:53:02;102941.53;;;5.76;100.00
1207;BME280;593;53.184;8.216;2024-01-27T08:55:27;102943.19;;;5.77;100.00
1207;BME280;593;53.184;8.216;2024-01-27T08:57:53;102944.03;;;5.77;100.00
1207;BME280;593;53.184;8.216;2024-01-27T09:00:18;102949.06;;;5.80;100.00
1207;BME280;593;53.184;8.216;2024-01-27T09:02:44;102948.41;;;5.78;100.00
1207;BME280;593;53.184;8.216;2024-01-27T09:05:10;102951.13;;;5.78;100.00
1207;BME280;593;53.184;8.216;2024-01-27T09:07:35;102956.91;;;5.75;100.00
1207;BME280;593;53.184;8.216;2024-01-27T09:10:01;102955.28;;;5.81;100.00
1207;BME280;593;53.184;8.216;2024-01-27T09:12:27;102961.63;;;5.88;100.00
1207;BME280;593;53.184;8.216;2024-01-27T09:14:52;102946.25;;;5.89;100.00
1207;BME280;593;53.184;8.216;2024-01-27T09:17:20;102948.75;;;5.90;100.00
1207;BME280;593;53.184;8.216;2024-01-27T09:19:45;102952.09;;;5.92;100.00
1207;BME280;593;53.184;8.216;2024-01-27T09:22:10;102949.84;;;5.96;100.00
1207;BME280;593;53.184;8.216;2024-01-27T09:24:36;102959.41;;;5.98;100.00
1207;BME280;593;53.184;8.216;2024-01-27T09:27:01;102960.88;;;6.01;100.00
1207;BME280;593;53.184;8.216;2024-01-27T09:29:27;102976.50;;;6.05;100.00
1207;BME280;593;53.184;8.216;2024-01-27T09:31:52;102970.06;;;6.06;100.00
1207;BME280;593;53.184;8.216;2024-01-27T09:34:18;102964.47;;;6.08;100.00
1207;BME280;593;53.184;8.216;2024-01-27T09:36:43;102965.31;;;6.08;100.00
1207;BME280;593;53.184;8.216;2024-01-27T09:39:08;102963.88;;;6.12;100.00
1207;BME280;593;53.184;8.216;2024-01-27T09:41:34;102952.22;;;6.12;100.00
1207;BME280;593;53.184;8.216;2024-01-27T09:44:03;102960.59;;;6.17;100.00
1207;BME280;593;53.184;8.216;2024-01-27T09:46:30;102952.72;;;6.22;100.00
1207;BME280;593;53.184;8.216;2024-01-27T09:48:56;102952.72;;;6.22;100.00
1207;BME280;593;53.184;8.216;2024-01-27T09:51:22;102957.75;;;6.25;100.00
1207;BME280;593;53.184;8.216;2024-01-27T09:53:48;102959.84;;;6.29;100.00
1207;BME280;593;53.184;8.216;2024-01-27T09:56:16;102951.97;;;6.34;100.00
1207;BME280;593;53.184;8.216;2024-01-27T09:58:44;102957.84;;;6.38;100.00
1207;BME280;593;53.184;8.216;2024-01-27T10:01:10;102967.59;;;6.39;100.00
1207;BME280;593;53.184;8.216;2024-01-27T10:03:40;102963.88;;;6.40;100.00
1207;BME280;593;53.184;8.216;2024-01-27T10:06:08;102975.31;;;6.42;100.00
1207;BME280;593;53.184;8.216;2024-01-27T10:08:35;102965.78;;;6.46;100.00
1207;BME280;593;53.184;8.216;2024-01-27T10:11:07;102971.84;;;6.48;100.00
1207;BME280;593;53.184;8.216;2024-01-27T10:13:34;102977.03;;;6.50;100.00
1207;BME280;593;53.184;8.216;2024-01-27T10:16:04;102977.66;;;6.52;100.00
1207;BME280;593;53.184;8.216;2024-01-27T10:18:31;102977.25;;;6.55;100.00
1207;BME280;593;53.184;8.216;2024-01-27T10:20:56;102973.94;;;6.53;100.00
1207;BME280;593;53.184;8.216;2024-01-27T10:23:22;102985.81;;;6.58;100.00
1207;BME280;593;53.184;8.216;2024-01-27T10:25:47;102984.38;;;6.62;100.00
1207;BME280;593;53.184;8.216;2024-01-27T10:28:13;102988.38;;;6.66;100.00
1207;BME280;593;53.184;8.216;2024-01-27T10:30:38;102995.25;;;6.69;100.00
1207;BME280;593;53.184;8.216;2024-01-27T10:33:04;102995.88;;;6.71;100.00
1207;BME280;593;53.184;8.216;2024-01-27T10:35:30;103001.94;;;6.73;100.00
1207;BME280;593;53.184;8.216;2024-01-27T10:37:56;103000.06;;;6.73;100.00
1207;BME280;593;53.184;8.216;2024-01-27T10:40:22;102996.66;;;6.65;100.00
1207;BME280;593;53.184;8.216;2024-01-27T10:43:05;102988.72;;;6.57;100.00
1207;BME280;593;53.184;8.216;2024-01-27T10:45:40;102991.84;;;6.54;100.00
1207;BME280;593;53.184;8.216;2024-01-27T10:48:09;102995.84;;;6.64;100.00
1207;BME280;593;53.184;8.216;2024-01-27T10:50:38;102994.84;;;6.72;100.00
1207;BME280;593;53.184;8.216;2024-01-27T10:53:04;102996.28;;;6.68;100.00
1207;BME280;593;53.184;8.216;2024-01-27T10:55:34;103005.38;;;6.60;100.00
1207;BME280;593;53.184;8.216;2024-01-27T10:58:03;103011.19;;;6.57;100.00
1207;BME280;593;53.184;8.216;2024-01-27T11:00:29;103001.06;;;6.66;100.00
1207;BME280;593;53.184;8.216;2024-01-27T11:02:59;102985.91;;;6.71;100.00
1207;BME280;593;53.184;8.216;2024-01-27T11:05:27;102984.50;;;6.82;100.00
1207;BME280;593;53.184;8.216;2024-01-27T11:07:53;102974.13;;;6.85;100.00
1207;BME280;593;53.184;8.216;2024-01-27T11:10:18;102978.13;;;6.96;100.00
1207;BME280;593;53.184;8.216;2024-01-27T11:12:44;102982.72;;;7.02;100.00
1207;BME280;593;53.184;8.216;2024-01-27T11:15:10;102987.09;;;7.03;100.00
1207;BME280;593;53.184;8.216;2024-01-27T11:17:42;102995.63;;;7.00;100.00
1207;BME280;593;53.184;8.216;2024-01-27T11:20:09;103015.25;;;7.15;100.00
1207;BME280;593;53.184;8.216;2024-01-27T11:22:36;103016.72;;;7.18;100.00
1207;BME280;593;53.184;8.216;2024-01-27T11:25:07;102998.78;;;7.17;100.00
1207;BME280;593;53.184;8.216;2024-01-27T11:27:33;103016.56;;;7.26;100.00
1207;BME280;593;53.184;8.216;2024-01-27T11:29:58;103017.16;;;7.28;100.00
1207;BME280;593;53.184;8.216;2024-01-27T11:32:23;103014.69;;;7.33;100.00
1207;BME280;593;53.184;8.216;2024-01-27T11:34:51;103013.00;;;7.32;100.00
1207;BME280;593;53.184;8.216;2024-01-27T11:37:17;103021.81;;;7.40;100.00
1207;BME280;593;53.184;8.216;2024-01-27T11:39:45;103021.59;;;7.42;100.00
1207;BME280;593;53.184;8.216;2024-01-27T11:42:12;103013.91;;;7.45;100.00
1207;BME280;593;53.184;8.216;2024-01-27T11:44:39;103012.22;;;7.44;100.00
1207;BME280;593;53.184;8.216;2024-01-27T11:47:05;103016.16;;;7.35;100.00
1207;BME280;593;53.184;8.216;2024-01-27T12:15:54;103018.50;;;6.63;100.00
1207;BME280;593;53.184;8.216;2024-01-27T12:18:20;102991.25;;;6.65;100.00
1207;BME280;593;53.184;8.216;2024-01-27T12:20:46;103010.97;;;6.86;100.00
1207;BME280;593;53.184;8.216;2024-01-27T12:23:13;103028.53;;;7.10;100.00
1207;BME280;593;53.184;8.216;2024-01-27T12:25:38;103031.09;;;7.25;100.00
1207;BME280;593;53.184;8.216;2024-01-27T12:28:08;103026.38;;;7.40;100.00
1207;BME280;593;53.184;8.216;2024-01-27T12:30:34;103018.91;;;7.48;100.00
1207;BME280;593;53.184;8.216;2024-01-27T12:33:00;103022.06;;;7.58;100.00
1207;BME280;593;53.184;8.216;2024-01-27T12:35:26;103018.34;;;7.66;100.00
1207;BME280;593;53.184;8.216;2024-01-27T12:37:52;103031.25;;;7.70;100.00
1207;BME280;593;53.184;8.216;2024-01-27T12:40:20;103024.81;;;7.71;100.00
1207;BME280;593;53.184;8.216;2024-01-27T12:42:46;103032.31;;;7.83;100.00
1207;BME280;593;53.184;8.216;2024-01-27T12:45:12;103020.88;;;7.81;100.00
1207;BME280;593;53.184;8.216;2024-01-27T12:47:38;103015.88;;;7.91;100.00
1207;BME280;593;53.184;8.216;2024-01-27T12:50:04;103023.78;;;7.92;100.00
1207;BME280;593;53.184;8.216;2024-01-27T12:52:29;103022.53;;;7.95;100.00
1207;BME280;593;53.184;8.216;2024-01-27T12:54:55;103012.53;;;8.02;100.00
1207;BME280;593;53.184;8.216;2024-01-27T12:57:20;103015.69;;;8.05;100.00
1207;BME280;593;53.184;8.216;2024-01-27T12:59:46;103015.28;;;8.08;100.00
1207;BME280;593;53.184;8.216;2024-01-27T13:02:11;103008.59;;;8.11;100.00
1207;BME280;593;53.184;8.216;2024-01-27T13:04:37;103014.63;;;8.13;100.00
1207;BME280;593;53.184;8.216;2024-01-27T13:07:02;103010.69;;;8.15;100.00
1207;BME280;593;53.184;8.216;2024-01-27T13:09:28;103009.66;;;8.16;100.00
1207;BME280;593;53.184;8.216;2024-01-27T13:11:53;103005.88;;;8.17;100.00
1207;BME280;593;53.184;8.216;2024-01-27T13:14:19;103008.19;;;8.14;100.00
1207;BME280;593;53.184;8.216;2024-01-27T13:16:46;103011.75;;;8.27;100.00
1207;BME280;593;53.184;8.216;2024-01-27T13:19:11;103013.81;;;8.32;100.00
1207;BME280;593;53.184;8.216;2024-01-27T13:21:36;103028.63;;;8.29;100.00
1207;BME280;593;53.184;8.216;2024-01-27T13:24:02;103019.06;;;8.33;100.00
1207;BME280;593;53.184;8.216;2024-01-27T13:26:28;103021.97;;;8.38;100.00
1207;BME280;593;53.184;8.216;2024-01-27T13:28:53;103012.56;;;8.34;100.00
1207;BME280;593;53.184;8.216;2024-01-27T13:31:19;103011.13;;;8.38;100.00
1207;BME280;593;53.184;8.216;2024-01-27T13:33:44;103011.31;;;8.37;100.00
1207;BME280;593;53.184;8.216;2024-01-27T13:36:10;103005.69;;;8.45;100.00
1207;BME280;593;53.184;8.216;2024-01-27T13:38:35;103015.28;;;8.54;100.00
1207;BME280;593;53.184;8.216;2024-01-27T13:41:01;103012.16;;;8.51;100.00
1207;BME280;593;53.184;8.216;2024-01-27T13:43:26;103013.59;;;8.60;100.00